<?xml version='1.0' encoding='UTF-8'?>
<gpx version="1.1" creator="https://www.komoot.de" xmlns="http://www.topografix.com/GPX/1/1" xmlns:xsi="http://www.w3.org/2001/XMLSchema-instance" xsi:schemaLocation="http://www.topografix.com/GPX/1/1 http://www.topografix.com/GPX/1/1/gpx.xsd">
  <metadata>
    <name>Wanderung</name>
    <author>
      <link href="https://www.komoot.de">
        <text>komoot</text>
        <type>text/html</type>
      </link>
    </author>
  </metadata>
  <trk>
    <name>Wanderung</name>
    <trkseg>
      <trkpt lat="49.449813" lon="11.367486">
        <ele>433.741620</ele>
        <time>2022-11-01T08:17:57.652Z</time>
      </trkpt>
      <trkpt lat="49.449851" lon="11.367445">
        <ele>433.741620</ele>
        <time>2022-11-01T08:18:02.483Z</time>
      </trkpt>
      <trkpt lat="49.449713" lon="11.367155">
        <ele>433.741620</ele>
        <time>2022-11-01T08:18:26.945Z</time>
      </trkpt>
      <trkpt lat="49.449951" lon="11.366371">
        <ele>433.741620</ele>
        <time>2022-11-01T08:19:25.576Z</time>
      </trkpt>
      <trkpt lat="49.450025" lon="11.366116">
        <ele>433.725463</ele>
        <time>2022-11-01T08:19:44.639Z</time>
      </trkpt>
      <trkpt lat="49.450306" lon="11.365561">
        <ele>433.666256</ele>
        <time>2022-11-01T08:20:31.664Z</time>
      </trkpt>
      <trkpt lat="49.450709" lon="11.364969">
        <ele>433.594112</ele>
        <time>2022-11-01T08:21:27.544Z</time>
      </trkpt>
      <trkpt lat="49.450750" lon="11.364909">
        <ele>433.586785</ele>
        <time>2022-11-01T08:21:33.376Z</time>
      </trkpt>
      <trkpt lat="49.450908" lon="11.364708">
        <ele>433.560240</ele>
        <time>2022-11-01T08:21:54.336Z</time>
      </trkpt>
      <trkpt lat="49.451147" lon="11.364334">
        <ele>433.516102</ele>
        <time>2022-11-01T08:22:29.820Z</time>
      </trkpt>
      <trkpt lat="49.451463" lon="11.364842">
        <ele>433.822994</ele>
        <time>2022-11-01T08:23:18.870Z</time>
      </trkpt>
      <trkpt lat="49.451679" lon="11.365040">
        <ele>434.020344</ele>
        <time>2022-11-01T08:23:45.285Z</time>
      </trkpt>
      <trkpt lat="49.451860" lon="11.365039">
        <ele>434.162406</ele>
        <time>2022-11-01T08:24:05.321Z</time>
      </trkpt>
      <trkpt lat="49.452038" lon="11.364884">
        <ele>434.322944</ele>
        <time>2022-11-01T08:24:26.652Z</time>
      </trkpt>
      <trkpt lat="49.452174" lon="11.364660">
        <ele>434.479329</ele>
        <time>2022-11-01T08:24:47.523Z</time>
      </trkpt>
      <trkpt lat="49.452259" lon="11.363796">
        <ele>434.907774</ele>
        <time>2022-11-01T08:25:44.874Z</time>
      </trkpt>
      <trkpt lat="49.452381" lon="11.363391">
        <ele>434.297303</ele>
        <time>2022-11-01T08:26:15.018Z</time>
      </trkpt>
      <trkpt lat="49.452438" lon="11.363061">
        <ele>433.830324</ele>
        <time>2022-11-01T08:26:38.008Z</time>
      </trkpt>
      <trkpt lat="49.452466" lon="11.362903">
        <ele>433.606352</ele>
        <time>2022-11-01T08:26:49.090Z</time>
      </trkpt>
      <trkpt lat="49.451935" lon="11.362658">
        <ele>432.440065</ele>
        <time>2022-11-01T08:27:47.852Z</time>
      </trkpt>
      <trkpt lat="49.451583" lon="11.362496">
        <ele>431.667094</ele>
        <time>2022-11-01T08:28:26.428Z</time>
      </trkpt>
      <trkpt lat="49.451704" lon="11.362023">
        <ele>431.065441</ele>
        <time>2022-11-01T08:29:01.012Z</time>
      </trkpt>
      <trkpt lat="49.451922" lon="11.361503">
        <ele>430.700184</ele>
        <time>2022-11-01T08:29:43.270Z</time>
      </trkpt>
      <trkpt lat="49.452128" lon="11.361168">
        <ele>430.427975</ele>
        <time>2022-11-01T08:30:14.344Z</time>
      </trkpt>
      <trkpt lat="49.452912" lon="11.360122">
        <ele>429.516086</ele>
        <time>2022-11-01T08:31:58.335Z</time>
      </trkpt>
      <trkpt lat="49.453601" lon="11.358918">
        <ele>430.208543</ele>
        <time>2022-11-01T08:33:44.488Z</time>
      </trkpt>
      <trkpt lat="49.453734" lon="11.358585">
        <ele>430.377260</ele>
        <time>2022-11-01T08:34:10.803Z</time>
      </trkpt>
      <trkpt lat="49.454063" lon="11.357365">
        <ele>430.434778</ele>
        <time>2022-11-01T08:35:41.100Z</time>
      </trkpt>
      <trkpt lat="49.454965" lon="11.355344">
        <ele>428.598297</ele>
        <time>2022-11-01T08:38:24.341Z</time>
      </trkpt>
      <trkpt lat="49.454997" lon="11.355114">
        <ele>427.845542</ele>
        <time>2022-11-01T08:38:40.135Z</time>
      </trkpt>
      <trkpt lat="49.454959" lon="11.354543">
        <ele>426.008584</ele>
        <time>2022-11-01T08:39:20.801Z</time>
      </trkpt>
      <trkpt lat="49.454913" lon="11.354465">
        <ele>425.671533</ele>
        <time>2022-11-01T08:39:28.739Z</time>
      </trkpt>
      <trkpt lat="49.454841" lon="11.354343">
        <ele>425.144180</ele>
        <time>2022-11-01T08:39:40.862Z</time>
      </trkpt>
      <trkpt lat="49.454595" lon="11.353328">
        <ele>421.677361</ele>
        <time>2022-11-01T08:41:00.089Z</time>
      </trkpt>
      <trkpt lat="49.454458" lon="11.353040">
        <ele>420.524355</ele>
        <time>2022-11-01T08:41:26.466Z</time>
      </trkpt>
      <trkpt lat="49.453326" lon="11.352113">
        <ele>412.847324</ele>
        <time>2022-11-01T08:43:51.993Z</time>
      </trkpt>
      <trkpt lat="49.453085" lon="11.351855">
        <ele>411.089610</ele>
        <time>2022-11-01T08:44:24.293Z</time>
      </trkpt>
      <trkpt lat="49.452815" lon="11.351448">
        <ele>409.260280</ele>
        <time>2022-11-01T08:45:05.555Z</time>
      </trkpt>
      <trkpt lat="49.452488" lon="11.350803">
        <ele>407.469499</ele>
        <time>2022-11-01T08:46:03.146Z</time>
      </trkpt>
      <trkpt lat="49.452320" lon="11.350649">
        <ele>406.810865</ele>
        <time>2022-11-01T08:46:24.334Z</time>
      </trkpt>
      <trkpt lat="49.452149" lon="11.350614">
        <ele>406.229893</ele>
        <time>2022-11-01T08:46:42.719Z</time>
      </trkpt>
      <trkpt lat="49.451768" lon="11.350914">
        <ele>404.788421</ele>
        <time>2022-11-01T08:47:27.821Z</time>
      </trkpt>
      <trkpt lat="49.451568" lon="11.350978">
        <ele>404.100438</ele>
        <time>2022-11-01T08:47:49.343Z</time>
      </trkpt>
      <trkpt lat="49.450933" lon="11.350981">
        <ele>403.373908</ele>
        <time>2022-11-01T08:48:55.309Z</time>
      </trkpt>
      <trkpt lat="49.450714" lon="11.350872">
        <ele>403.207273</ele>
        <time>2022-11-01T08:49:18.764Z</time>
      </trkpt>
      <trkpt lat="49.450612" lon="11.350788">
        <ele>403.123514</ele>
        <time>2022-11-01T08:49:30.610Z</time>
      </trkpt>
      <trkpt lat="49.450370" lon="11.350882">
        <ele>402.942822</ele>
        <time>2022-11-01T08:49:55.904Z</time>
      </trkpt>
      <trkpt lat="49.450217" lon="11.350886">
        <ele>402.832044</ele>
        <time>2022-11-01T08:50:11.484Z</time>
      </trkpt>
      <trkpt lat="49.449636" lon="11.350806">
        <ele>402.583554</ele>
        <time>2022-11-01T08:51:10.663Z</time>
      </trkpt>
      <trkpt lat="49.449201" lon="11.350888">
        <ele>403.398803</ele>
        <time>2022-11-01T08:51:56.661Z</time>
      </trkpt>
      <trkpt lat="49.446452" lon="11.351161">
        <ele>408.731552</ele>
        <time>2022-11-01T08:56:54.824Z</time>
      </trkpt>
      <trkpt lat="49.446321" lon="11.351042">
        <ele>409.036257</ele>
        <time>2022-11-01T08:57:10.797Z</time>
      </trkpt>
      <trkpt lat="49.445882" lon="11.350357">
        <ele>409.780148</ele>
        <time>2022-11-01T08:58:15.682Z</time>
      </trkpt>
      <trkpt lat="49.444888" lon="11.349321">
        <ele>410.798527</ele>
        <time>2022-11-01T09:00:17.780Z</time>
      </trkpt>
      <trkpt lat="49.444584" lon="11.349182">
        <ele>411.338692</ele>
        <time>2022-11-01T09:00:50.574Z</time>
      </trkpt>
      <trkpt lat="49.443575" lon="11.349084">
        <ele>413.913176</ele>
        <time>2022-11-01T09:02:39.628Z</time>
      </trkpt>
      <trkpt lat="49.443591" lon="11.349283">
        <ele>414.245169</ele>
        <time>2022-11-01T09:02:54.870Z</time>
      </trkpt>
      <trkpt lat="49.443687" lon="11.350537">
        <ele>416.435925</ele>
        <time>2022-11-01T09:04:27.387Z</time>
      </trkpt>
      <trkpt lat="49.443706" lon="11.351393">
        <ele>418.026529</ele>
        <time>2022-11-01T09:05:31.095Z</time>
      </trkpt>
      <trkpt lat="49.443557" lon="11.352799">
        <ele>420.641870</ele>
        <time>2022-11-01T09:07:11.674Z</time>
      </trkpt>
      <trkpt lat="49.443926" lon="11.352942">
        <ele>420.270576</ele>
        <time>2022-11-01T09:07:50.827Z</time>
      </trkpt>
      <trkpt lat="49.444875" lon="11.353016">
        <ele>419.343429</ele>
        <time>2022-11-01T09:09:28.603Z</time>
      </trkpt>
      <trkpt lat="49.445692" lon="11.353226">
        <ele>418.010782</ele>
        <time>2022-11-01T09:10:55.891Z</time>
      </trkpt>
      <trkpt lat="49.446039" lon="11.353154">
        <ele>417.170593</ele>
        <time>2022-11-01T09:11:33.024Z</time>
      </trkpt>
      <trkpt lat="49.446458" lon="11.352952">
        <ele>416.116947</ele>
        <time>2022-11-01T09:12:19.592Z</time>
      </trkpt>
      <trkpt lat="49.446743" lon="11.352950">
        <ele>415.433067</ele>
        <time>2022-11-01T09:12:49.780Z</time>
      </trkpt>
      <trkpt lat="49.447170" lon="11.353256">
        <ele>414.520878</ele>
        <time>2022-11-01T09:13:38.604Z</time>
      </trkpt>
      <trkpt lat="49.447845" lon="11.353627">
        <ele>414.160807</ele>
        <time>2022-11-01T09:14:51.568Z</time>
      </trkpt>
      <trkpt lat="49.448085" lon="11.353622">
        <ele>414.040236</ele>
        <time>2022-11-01T09:15:15.699Z</time>
      </trkpt>
      <trkpt lat="49.448111" lon="11.353843">
        <ele>413.966889</ele>
        <time>2022-11-01T09:15:30.340Z</time>
      </trkpt>
      <trkpt lat="49.448115" lon="11.353876">
        <ele>413.955926</ele>
        <time>2022-11-01T09:15:32.743Z</time>
      </trkpt>
      <trkpt lat="49.448528" lon="11.354589">
        <ele>413.734615</ele>
        <time>2022-11-01T09:16:34.992Z</time>
      </trkpt>
      <trkpt lat="49.448761" lon="11.355161">
        <ele>414.156631</ele>
        <time>2022-11-01T09:17:19.835Z</time>
      </trkpt>
      <trkpt lat="49.448808" lon="11.355519">
        <ele>414.384972</ele>
        <time>2022-11-01T09:17:44.103Z</time>
      </trkpt>
      <trkpt lat="49.448769" lon="11.356070">
        <ele>414.731496</ele>
        <time>2022-11-01T09:18:21.687Z</time>
      </trkpt>
      <trkpt lat="49.448898" lon="11.356383">
        <ele>414.963193</ele>
        <time>2022-11-01T09:18:46.422Z</time>
      </trkpt>
      <trkpt lat="49.449032" lon="11.357573">
        <ele>416.291981</ele>
        <time>2022-11-01T09:20:09.313Z</time>
      </trkpt>
      <trkpt lat="49.448822" lon="11.358815">
        <ele>418.562910</ele>
        <time>2022-11-01T09:21:39.644Z</time>
      </trkpt>
      <trkpt lat="49.448796" lon="11.359734">
        <ele>420.190694</ele>
        <time>2022-11-01T09:22:47.284Z</time>
      </trkpt>
      <trkpt lat="49.448884" lon="11.360507">
        <ele>422.469987</ele>
        <time>2022-11-01T09:23:46.163Z</time>
      </trkpt>
      <trkpt lat="49.448886" lon="11.361691">
        <ele>426.024279</ele>
        <time>2022-11-01T09:25:16.450Z</time>
      </trkpt>
      <trkpt lat="49.449052" lon="11.362738">
        <ele>429.215486</ele>
        <time>2022-11-01T09:26:38.098Z</time>
      </trkpt>
      <trkpt lat="49.449049" lon="11.362854">
        <ele>429.540570</ele>
        <time>2022-11-01T09:26:46.853Z</time>
      </trkpt>
      <trkpt lat="49.449043" lon="11.363090">
        <ele>430.201931</ele>
        <time>2022-11-01T09:27:04.591Z</time>
      </trkpt>
      <trkpt lat="49.448706" lon="11.363769">
        <ele>432.594035</ele>
        <time>2022-11-01T09:28:08.627Z</time>
      </trkpt>
      <trkpt lat="49.448580" lon="11.364423">
        <ele>434.504126</ele>
        <time>2022-11-01T09:29:00.640Z</time>
      </trkpt>
      <trkpt lat="49.448094" lon="11.365863">
        <ele>437.404472</ele>
        <time>2022-11-01T09:30:58.979Z</time>
      </trkpt>
      <trkpt lat="49.448066" lon="11.366204">
        <ele>437.780089</ele>
        <time>2022-11-01T09:31:23.421Z</time>
      </trkpt>
      <trkpt lat="49.448084" lon="11.366258">
        <ele>437.846407</ele>
        <time>2022-11-01T09:31:27.364Z</time>
      </trkpt>
      <trkpt lat="49.448274" lon="11.367089">
        <ele>438.809073</ele>
        <time>2022-11-01T09:32:25.735Z</time>
      </trkpt>
      <trkpt lat="49.448914" lon="11.366726">
        <ele>439.376270</ele>
        <time>2022-11-01T09:33:33.993Z</time>
      </trkpt>
      <trkpt lat="49.449154" lon="11.366654">
        <ele>439.376270</ele>
        <time>2022-11-01T09:33:58.793Z</time>
      </trkpt>
      <trkpt lat="49.449713" lon="11.367155">
        <ele>439.376270</ele>
        <time>2022-11-01T09:35:06.074Z</time>
      </trkpt>
      <trkpt lat="49.449851" lon="11.367445">
        <ele>439.376270</ele>
        <time>2022-11-01T09:35:30.175Z</time>
      </trkpt>
      <trkpt lat="49.449813" lon="11.367486">
        <ele>439.376270</ele>
        <time>2022-11-01T09:35:35.033Z</time>
      </trkpt>
      <trkpt lat="49.449760" lon="11.367543">
        <ele>439.376270</ele>
        <time>2022-11-01T09:35:41.757Z</time>
      </trkpt>
    </trkseg>
  </trk>
</gpx>